createdAt,value
2018-03-19T00:01:28.990Z,72.30
2018-03-19T00:03:57.392Z,71.80
2018-03-19T00:06:26.595Z,71.70
2018-03-19T00:08:55.020Z,71.70
2018-03-19T00:11:24.200Z,72.30
2018-03-19T00:13:52.612Z,72.30
2018-03-19T00:16:21.022Z,72.20
2018-03-19T00:18:50.218Z,72.60
2018-03-19T00:21:19.383Z,72.50
2018-03-19T00:23:47.816Z,72.40
2018-03-19T00:26:16.231Z,72.20
2018-03-19T00:28:44.662Z,72.30
2018-03-19T00:31:14.117Z,71.60
2018-03-19T00:33:42.535Z,71.00
2018-03-19T00:36:11.715Z,70.20
2018-03-19T00:38:40.908Z,69.90
2018-03-19T00:41:09.309Z,69.80
2018-03-19T00:43:37.737Z,70.70
2018-03-19T00:46:06.133Z,71.00
2018-03-19T00:48:34.527Z,71.00
2018-03-19T00:51:03.734Z,69.90
2018-03-19T00:53:33.353Z,70.10
2018-03-19T00:56:01.802Z,70.10
2018-03-19T00:58:31.457Z,69.80
2018-03-19T01:00:59.861Z,69.80
2018-03-19T01:03:28.293Z,70.60
2018-03-19T01:05:56.739Z,70.80
2018-03-19T01:08:25.146Z,70.70
2018-03-19T01:10:53.557Z,71.20
2018-03-19T01:13:21.968Z,71.60
2018-03-19T01:15:50.372Z,71.60
2018-03-19T01:18:19.555Z,72.40
2018-03-19T01:20:48.732Z,72.60
2018-03-19T01:23:17.133Z,72.60
2018-03-19T01:25:46.317Z,72.10
2018-03-19T01:28:14.725Z,72.10
2018-03-19T01:30:43.139Z,71.80
2018-03-19T01:33:11.535Z,71.60
2018-03-19T01:35:39.962Z,71.90
2018-03-19T01:38:08.372Z,71.90
2018-03-19T01:40:36.798Z,72.20
2018-03-19T01:43:05.978Z,71.90
2018-03-19T01:45:34.394Z,71.90
2018-03-19T01:48:02.795Z,72.20
2018-03-19T01:50:32.255Z,71.10
2018-03-19T01:53:03.110Z,71.90
2018-03-19T01:55:32.137Z,71.90
2018-03-19T01:58:00.701Z,72.70
2018-03-19T02:00:29.128Z,71.90
2018-03-19T02:02:58.480Z,71.90
2018-03-19T02:05:26.907Z,71.60
2018-03-19T02:07:55.316Z,71.70
2018-03-19T02:10:23.717Z,71.90
2018-03-19T02:12:52.133Z,71.50
2018-03-19T02:15:20.573Z,70.70
2018-03-19T02:17:48.974Z,71.50
2018-03-19T02:20:17.030Z,71.60
2018-03-19T02:22:45.435Z,71.00
2018-03-19T02:25:13.828Z,71.60
2018-03-19T02:27:43.921Z,71.80
2018-03-19T02:30:12.337Z,71.80
2018-03-19T02:32:41.518Z,71.70
2018-03-19T02:35:10.720Z,71.90
2018-03-19T02:37:39.889Z,72.20
2018-03-19T02:40:08.320Z,72.20
2018-03-19T02:42:36.539Z,70.80
2018-03-19T02:45:04.608Z,71.70
2018-03-19T02:47:33.269Z,71.50
2018-03-19T02:50:01.685Z,71.40
2018-03-19T02:52:30.118Z,72.00
2018-03-19T02:54:58.515Z,71.90
2018-03-19T02:57:26.932Z,71.90
2018-03-19T02:59:56.159Z,71.60
2018-03-19T03:02:24.573Z,71.50
2018-03-19T03:04:53.766Z,71.00
2018-03-19T03:07:22.189Z,71.00
2018-03-19T03:09:51.387Z,70.10
2018-03-19T03:12:20.601Z,71.40
2018-03-19T03:14:49.001Z,71.30
2018-03-19T03:17:17.391Z,71.10
2018-03-19T03:19:45.830Z,71.30
2018-03-19T03:22:14.252Z,71.80
2018-03-19T03:24:42.673Z,72.10
2018-03-19T03:27:11.832Z,71.80
2018-03-19T03:29:40.266Z,71.60
2018-03-19T03:32:08.683Z,71.70
2018-03-19T03:34:37.099Z,71.90
2018-03-19T03:37:06.256Z,71.70
2018-03-19T03:39:34.693Z,71.70
2018-03-19T03:42:03.549Z,71.80
2018-03-19T03:44:32.834Z,72.20
2018-03-19T03:47:01.891Z,71.40
2018-03-19T03:49:30.305Z,71.00
2018-03-19T03:52:00.011Z,71.90
2018-03-19T03:54:28.461Z,71.90
2018-03-19T03:56:57.076Z,71.40
2018-03-19T03:59:25.480Z,70.70
2018-03-19T04:01:54.674Z,71.10
2018-03-19T04:04:23.845Z,70.50
2018-03-19T04:06:52.455Z,70.50
2018-03-19T04:09:21.646Z,70.70
2018-03-19T04:11:50.241Z,70.70
2018-03-19T04:14:19.436Z,69.90
2018-03-19T04:16:48.612Z,70.60
2018-03-19T04:19:17.016Z,70.60
2018-03-19T04:21:46.187Z,71.00
2018-03-19T04:24:14.642Z,71.00
2018-03-19T04:26:43.338Z,71.10
2018-03-19T04:29:11.756Z,70.50
2018-03-19T04:31:40.918Z,69.60
2018-03-19T04:34:09.347Z,69.60
2018-03-19T04:36:37.760Z,69.90
2018-03-19T04:39:05.509Z,70.20
2018-03-19T04:41:33.942Z,70.60
2018-03-19T04:44:03.682Z,70.40
2018-03-19T04:46:32.312Z,70.20
2018-03-19T04:49:00.759Z,70.60
2018-03-19T04:51:29.168Z,70.60
2018-03-19T04:53:57.568Z,70.60
2018-03-19T04:56:26.769Z,70.50
2018-03-19T04:58:55.934Z,70.20
2018-03-19T05:01:24.350Z,70.20
2018-03-19T05:03:52.435Z,70.50
2018-03-19T05:06:20.893Z,70.80
2018-03-19T05:08:50.068Z,69.90
2018-03-19T05:11:18.500Z,69.90
2018-03-19T05:13:46.960Z,70.20
2018-03-19T05:16:15.373Z,70.30
2018-03-19T05:18:43.796Z,70.00
2018-03-19T05:21:12.968Z,70.30
2018-03-19T05:23:41.400Z,70.20
2018-03-19T05:26:09.861Z,70.40
2018-03-19T05:28:39.038Z,69.50
2018-03-19T05:31:08.232Z,69.50
2018-03-19T05:33:37.449Z,69.90
2018-03-19T05:36:05.864Z,69.40
2018-03-19T05:38:34.317Z,69.70
2018-03-19T05:41:03.697Z,70.20
2018-03-19T05:43:33.028Z,70.20
2018-03-19T05:46:01.509Z,70.20
2018-03-19T05:48:29.927Z,70.30
2018-03-19T05:50:58.345Z,69.60
2018-03-19T05:53:26.805Z,70.10
2018-03-19T05:55:56.031Z,70.20
2018-03-19T05:58:24.423Z,70.20
2018-03-19T06:00:52.834Z,70.40
2018-03-19T06:03:21.230Z,70.90
2018-03-19T06:05:50.422Z,71.00
2018-03-19T06:08:18.871Z,71.00
2018-03-19T06:10:48.055Z,71.00
2018-03-19T06:13:16.483Z,70.90
2018-03-19T06:15:45.655Z,71.70
2018-03-19T06:18:14.083Z,71.60
2018-03-19T06:20:42.507Z,72.00
2018-03-19T06:23:10.969Z,71.90
2018-03-19T06:25:39.381Z,71.80
2018-03-19T06:28:07.896Z,71.40
2018-03-19T06:30:36.472Z,71.70
2018-03-19T06:33:06.617Z,72.10
2018-03-19T06:35:35.037Z,72.00
2018-03-19T06:38:04.458Z,71.70
2018-03-19T06:40:33.650Z,71.10
2018-03-19T06:43:03.158Z,71.10
2018-03-19T06:45:32.358Z,72.10
2018-03-19T06:48:01.532Z,72.40
2018-03-19T06:50:29.928Z,72.40
2018-03-19T06:53:00.092Z,72.60
2018-03-19T06:55:28.499Z,72.60
2018-03-19T06:57:56.945Z,72.40
2018-03-19T07:00:25.356Z,73.00
2018-03-19T07:02:53.803Z,73.10
2018-03-19T07:05:22.204Z,73.40
2018-03-19T07:07:50.600Z,73.80
2018-03-19T07:10:19.009Z,73.00
2018-03-19T07:12:47.408Z,73.00
2018-03-19T07:15:15.825Z,72.90
2018-03-19T07:17:44.229Z,72.80
2018-03-19T07:20:13.436Z,72.20
2018-03-19T07:22:41.857Z,72.20
2018-03-19T07:25:10.266Z,72.40
2018-03-19T07:27:38.703Z,71.50
2018-03-19T07:30:07.113Z,71.40
2018-03-19T07:32:35.590Z,71.50
2018-03-19T07:35:04.004Z,71.30
2018-03-19T07:37:32.441Z,70.80
2018-03-19T07:40:00.864Z,71.00
2018-03-19T07:42:29.281Z,71.00
2018-03-19T07:44:57.684Z,70.90
2018-03-19T07:47:26.250Z,70.90
2018-03-19T07:49:54.668Z,70.60
2018-03-19T07:52:23.822Z,70.50
2018-03-19T07:54:52.235Z,70.60
2018-03-19T07:57:21.413Z,70.80
2018-03-19T07:59:49.822Z,70.80
2018-03-19T08:02:18.225Z,70.50
2018-03-19T08:04:46.671Z,70.90
2018-03-19T08:07:15.854Z,70.90
2018-03-19T08:09:45.033Z,71.00
2018-03-19T08:12:13.490Z,71.00
2018-03-19T08:14:42.119Z,70.00
2018-03-19T08:17:11.298Z,70.60
2018-03-19T08:19:39.710Z,70.50
2018-03-19T08:22:08.130Z,70.90
2018-03-19T08:24:36.598Z,70.70
2018-03-19T08:27:07.100Z,70.00
2018-03-19T08:29:35.489Z,70.00
2018-03-19T08:32:03.921Z,70.90
2018-03-19T08:34:33.103Z,70.10
2018-03-19T08:37:02.565Z,70.10
2018-03-19T08:39:32.013Z,70.40
2018-03-19T08:42:00.448Z,70.60
2018-03-19T08:44:28.856Z,70.50
2018-03-19T08:46:57.305Z,70.40
2018-03-19T08:49:25.722Z,69.80
2018-03-19T08:51:54.137Z,69.50
2018-03-19T08:54:22.551Z,69.60
2018-03-19T08:56:50.972Z,69.30
2018-03-19T08:59:20.166Z,69.00
2018-03-19T09:01:49.156Z,69.10
2018-03-19T09:04:17.658Z,69.10
2018-03-19T09:06:46.027Z,69.40
2018-03-19T09:09:15.249Z,70.00
2018-03-19T09:11:43.648Z,70.00
2018-03-19T09:14:12.053Z,70.20
2018-03-19T09:16:40.481Z,70.60
2018-03-19T09:19:08.874Z,70.90
2018-03-19T09:21:37.280Z,70.20
2018-03-19T09:24:05.365Z,70.30
2018-03-19T09:26:33.781Z,70.50
2018-03-19T09:29:02.863Z,70.70
2018-03-19T09:31:31.293Z,70.40
2018-03-19T09:33:59.708Z,71.00
2018-03-19T09:36:28.898Z,71.00
2018-03-19T09:38:58.078Z,71.10
2018-03-19T09:41:26.500Z,71.20
2018-03-19T09:43:54.930Z,71.00
2018-03-19T09:46:23.331Z,71.50
2018-03-19T09:48:52.512Z,71.30
2018-03-19T09:51:20.912Z,71.30
2018-03-19T09:53:50.079Z,71.20
2018-03-19T09:56:18.316Z,71.20
2018-03-19T09:58:46.728Z,71.50
2018-03-19T10:01:15.344Z,71.10
2018-03-19T10:03:43.741Z,71.50
2018-03-19T10:06:12.168Z,71.80
2018-03-19T10:08:40.573Z,71.60
2018-03-19T10:11:09.778Z,70.70
2018-03-19T10:13:38.179Z,70.60
2018-03-19T10:16:06.595Z,70.10
2018-03-19T10:18:35.017Z,69.50
2018-03-19T10:21:04.296Z,69.20
2018-03-19T10:23:34.232Z,70.50
2018-03-19T10:26:03.357Z,70.50
2018-03-19T10:28:32.457Z,70.20
2018-03-19T10:31:01.018Z,71.00
2018-03-19T10:33:29.468Z,71.30
2018-03-19T10:35:58.037Z,71.10
2018-03-19T10:38:27.218Z,70.00
2018-03-19T10:40:55.642Z,70.00
2018-03-19T10:43:24.042Z,69.00
2018-03-19T10:45:52.520Z,69.40
2018-03-19T10:48:21.090Z,69.40
2018-03-19T10:50:49.527Z,69.80
2018-03-19T10:53:18.740Z,69.20
2018-03-19T10:55:47.170Z,69.10
2018-03-19T10:58:15.575Z,69.30
2018-03-19T11:00:43.656Z,69.40
2018-03-19T11:06:21.604Z,70.50
2018-03-19T11:08:49.961Z,70.50
2018-03-19T11:11:18.360Z,70.20
2018-03-19T11:13:46.784Z,69.80
2018-03-19T11:16:15.220Z,68.30
2018-03-19T11:18:43.630Z,68.80
2018-03-19T11:21:12.052Z,68.90
2018-03-19T11:23:40.474Z,69.10
2018-03-19T11:26:08.868Z,68.90
2018-03-19T11:28:37.109Z,68.90
2018-03-19T11:31:05.519Z,68.90
2018-03-19T11:33:33.600Z,68.60
2018-03-19T11:36:02.062Z,68.80
2018-03-19T11:38:30.490Z,68.80
2018-03-19T11:40:58.913Z,68.60
2018-03-19T11:43:27.322Z,68.60
2018-03-19T11:45:55.726Z,68.60
2018-03-19T11:48:24.145Z,68.40
2018-03-19T11:50:53.330Z,68.80
2018-03-19T11:53:21.740Z,68.80
2018-03-19T11:55:50.164Z,69.20
2018-03-19T11:58:18.572Z,69.10
2018-03-19T12:00:47.819Z,68.20
2018-03-19T12:03:17.015Z,68.00
2018-03-19T12:05:46.194Z,68.10
2018-03-19T12:08:14.613Z,68.10
2018-03-19T12:10:43.025Z,68.60
2018-03-19T12:13:11.450Z,69.10
2018-03-19T12:15:40.625Z,69.40
2018-03-19T12:18:08.385Z,69.40
2018-03-19T12:20:36.806Z,69.80
2018-03-19T12:23:05.249Z,69.90
2018-03-19T12:25:34.442Z,70.10
2018-03-19T12:28:03.602Z,70.00
2018-03-19T12:30:32.012Z,69.00
2018-03-19T12:33:00.408Z,69.20
2018-03-19T12:35:29.588Z,69.80
2018-03-19T12:37:58.761Z,70.40
2018-03-19T12:40:27.176Z,69.60
2018-03-19T12:42:56.356Z,69.30
2018-03-19T12:45:24.771Z,69.30
2018-03-19T12:47:53.198Z,69.20
2018-03-19T12:50:21.636Z,68.90
2018-03-19T12:52:50.084Z,68.90
2018-03-19T12:55:18.635Z,68.90
2018-03-19T12:57:47.073Z,68.90
2018-03-19T13:00:15.483Z,69.40
2018-03-19T13:02:43.899Z,68.90
2018-03-19T13:05:12.932Z,67.60
2018-03-19T13:07:41.365Z,67.50
2018-03-19T13:10:10.543Z,68.70
2018-03-19T13:12:38.953Z,68.70
2018-03-19T13:15:07.382Z,69.00
2018-03-19T13:17:35.795Z,68.10
2018-03-19T13:20:04.655Z,69.40
2018-03-19T13:22:33.382Z,69.40
2018-03-19T13:25:01.806Z,69.10
2018-03-19T13:27:30.215Z,69.60
2018-03-19T13:29:58.630Z,69.30
2018-03-19T13:32:27.041Z,69.50
2018-03-19T13:34:55.468Z,69.00
2018-03-19T13:37:24.651Z,69.60
2018-03-19T13:39:53.834Z,69.50
2018-03-19T13:42:22.448Z,69.60
2018-03-19T13:44:50.853Z,69.10
2018-03-19T13:47:19.179Z,69.00
2018-03-19T13:49:48.358Z,69.40
2018-03-19T13:52:16.801Z,69.40
2018-03-19T13:54:45.205Z,69.50
2018-03-19T13:57:13.606Z,69.80
2018-03-19T13:59:42.025Z,69.20
2018-03-19T14:02:10.428Z,69.20
2018-03-19T14:04:38.849Z,69.40
2018-03-19T14:07:08.011Z,68.80
2018-03-19T14:09:36.429Z,68.70
2018-03-19T14:12:05.638Z,68.60
2018-03-19T14:14:34.048Z,68.60
2018-03-19T14:17:02.923Z,68.80
2018-03-19T14:19:31.979Z,69.20
2018-03-19T14:22:01.152Z,68.80
2018-03-19T14:24:29.568Z,68.80
2018-03-19T14:26:57.983Z,69.00
2018-03-19T14:29:26.399Z,69.00
2018-03-19T14:31:54.837Z,68.80
2018-03-19T14:34:23.240Z,68.90
2018-03-19T14:36:51.653Z,68.80
2018-03-19T14:39:20.828Z,68.80
2018-03-19T14:41:49.254Z,68.80
2018-03-19T14:44:17.685Z,68.80
2018-03-19T14:46:46.180Z,68.60
2018-03-19T14:49:15.366Z,68.50
2018-03-19T14:51:44.551Z,68.00
2018-03-19T14:54:12.964Z,68.00
2018-03-19T14:56:41.368Z,68.00
2018-03-19T14:59:09.769Z,68.20
2018-03-19T15:01:38.176Z,67.80
2018-03-19T15:04:07.369Z,67.50
2018-03-19T15:06:35.973Z,67.50
2018-03-19T15:09:03.528Z,68.00
2018-03-19T15:11:32.440Z,67.40
2018-03-19T15:14:01.218Z,67.30
2018-03-19T15:16:29.634Z,68.40
2018-03-19T15:18:58.036Z,68.00
2018-03-19T15:21:28.081Z,65.80
2018-03-19T15:23:56.476Z,65.80
2018-03-19T15:26:24.907Z,67.80
2018-03-19T15:28:53.329Z,68.30
2018-03-19T15:31:21.768Z,69.10
2018-03-19T15:33:50.346Z,67.50
2018-03-19T15:36:19.508Z,67.00
2018-03-19T15:38:47.929Z,66.10
2018-03-19T15:41:17.118Z,68.10
2018-03-19T15:43:46.305Z,65.60
2018-03-19T15:46:14.727Z,65.60
2018-03-19T15:48:43.159Z,68.10
2018-03-19T15:51:11.572Z,67.80
2018-03-19T15:53:39.980Z,67.30
2018-03-19T15:56:08.396Z,67.50
2018-03-19T15:58:36.805Z,67.00
2018-03-19T16:01:05.221Z,66.30
2018-03-19T16:03:34.313Z,67.30
2018-03-19T16:06:02.758Z,67.50
2018-03-19T16:08:31.207Z,66.60
2018-03-19T16:10:59.618Z,67.40
2018-03-19T16:13:28.038Z,66.90
2018-03-19T16:15:56.445Z,66.50
2018-03-19T16:18:25.642Z,67.00
2018-03-19T16:20:54.805Z,65.90
2018-03-19T16:23:23.205Z,65.90
2018-03-19T16:25:51.623Z,64.50
2018-03-19T16:28:20.038Z,66.00
2018-03-19T16:30:48.469Z,66.80
2018-03-19T16:33:16.883Z,66.90
2018-03-19T16:35:45.314Z,66.90
2018-03-19T16:38:14.486Z,66.00
2018-03-19T16:40:42.910Z,66.00
2018-03-19T16:43:10.974Z,65.30
2018-03-19T16:45:39.373Z,64.70
2018-03-19T16:48:07.792Z,64.50
2018-03-19T16:50:36.194Z,65.00
2018-03-19T16:53:05.569Z,65.70
2018-03-19T16:55:34.730Z,65.70
2018-03-19T16:58:04.004Z,65.30
2018-03-19T17:00:32.452Z,65.60
2018-03-19T17:03:01.193Z,65.60
2018-03-19T17:05:29.600Z,66.10
2018-03-19T17:07:58.052Z,65.50
2018-03-19T17:10:26.468Z,67.00
2018-03-19T17:12:55.803Z,66.80
2018-03-19T17:15:24.229Z,66.90
2018-03-19T17:17:52.629Z,67.00
2018-03-19T17:20:21.817Z,68.00
2018-03-19T17:22:50.239Z,67.90
2018-03-19T17:25:18.664Z,68.00
2018-03-19T17:27:47.084Z,67.20
2018-03-19T17:30:15.492Z,67.20
2018-03-19T17:32:43.908Z,67.30
2018-03-19T17:35:12.391Z,67.30
2018-03-19T17:37:40.787Z,67.30
2018-03-19T17:40:09.957Z,67.40
2018-03-19T17:42:38.450Z,67.30
2018-03-19T17:45:07.624Z,67.10
2018-03-19T17:47:36.062Z,67.10
2018-03-19T17:50:03.809Z,66.60
2018-03-19T17:52:32.666Z,65.80
2018-03-19T17:55:01.160Z,66.60
2018-03-19T17:57:30.346Z,67.10
2018-03-19T17:59:59.537Z,67.30
2018-03-19T18:02:27.940Z,67.30
2018-03-19T18:04:57.124Z,67.40
2018-03-19T18:07:26.296Z,67.60
2018-03-19T18:09:54.707Z,67.40
2018-03-19T18:12:23.886Z,67.60
2018-03-19T18:14:52.492Z,67.60
2018-03-19T18:17:20.890Z,67.80
2018-03-19T18:19:49.122Z,68.00
2018-03-19T18:22:18.296Z,68.00
2018-03-19T18:24:46.704Z,67.90
2018-03-19T18:27:15.893Z,67.90
2018-03-19T18:29:45.064Z,67.90
2018-03-19T18:32:13.500Z,67.80
2018-03-19T18:34:41.895Z,67.80
2018-03-19T18:37:10.294Z,68.00
2018-03-19T18:39:38.759Z,67.80
2018-03-19T18:42:08.074Z,68.30
2018-03-19T18:44:36.492Z,68.30
2018-03-19T18:47:05.144Z,68.50
2018-03-19T18:49:33.554Z,68.40
2018-03-19T18:52:03.204Z,68.80
2018-03-19T18:54:32.749Z,69.40
2018-03-19T18:57:01.277Z,68.60
2018-03-19T18:59:29.718Z,68.80
2018-03-19T19:01:58.894Z,68.80
2018-03-19T19:04:27.287Z,68.80
2018-03-19T19:06:56.485Z,68.90
2018-03-19T19:09:25.657Z,69.00
2018-03-19T19:11:54.049Z,69.00
2018-03-19T19:14:23.227Z,69.70
2018-03-19T19:16:51.650Z,69.00
2018-03-19T19:19:20.056Z,68.30
2018-03-19T19:21:48.473Z,68.20
2018-03-19T19:24:16.893Z,68.70
2018-03-19T19:26:45.297Z,69.00
2018-03-19T19:29:13.532Z,69.10
2018-03-19T19:31:41.940Z,69.10
2018-03-19T19:34:10.028Z,69.20
2018-03-19T19:36:38.440Z,69.20
2018-03-19T19:39:07.631Z,69.20
2018-03-19T19:41:36.051Z,69.20
2018-03-19T19:44:04.117Z,69.20
2018-03-19T19:46:32.545Z,68.80
2018-03-19T19:49:01.680Z,68.50
2018-03-19T19:51:30.118Z,68.80
2018-03-19T19:53:58.533Z,69.00
2018-03-19T19:56:26.944Z,69.00
2018-03-19T19:58:55.366Z,69.10
2018-03-19T20:01:24.532Z,69.80
2018-03-19T20:03:52.961Z,69.10
2018-03-19T20:06:21.383Z,69.10
2018-03-19T20:08:49.840Z,69.10
2018-03-19T20:11:18.420Z,69.20
2018-03-19T20:13:46.856Z,70.00
2018-03-19T20:16:15.844Z,69.30
2018-03-19T20:18:44.257Z,69.20
2018-03-19T20:21:12.677Z,69.30
2018-03-19T20:23:41.074Z,69.10
2018-03-19T20:26:09.488Z,69.10
2018-03-19T20:28:37.914Z,69.60
2018-03-19T20:31:06.325Z,68.90
2018-03-19T20:33:35.501Z,68.80
2018-03-19T20:36:04.869Z,68.70
2018-03-19T20:38:33.288Z,68.90
2018-03-19T20:41:01.690Z,68.40
2018-03-19T20:43:30.115Z,68.90
2018-03-19T20:45:58.525Z,68.90
2018-03-19T20:48:27.697Z,69.00
2018-03-19T20:50:56.140Z,69.00
2018-03-19T20:53:24.395Z,69.00
2018-03-19T20:55:53.741Z,69.00
2018-03-19T20:58:22.144Z,68.80
2018-03-19T21:00:50.562Z,68.70
2018-03-19T21:03:18.975Z,68.40
2018-03-19T21:05:47.736Z,68.80
2018-03-19T21:08:16.764Z,68.70
2018-03-19T21:10:45.244Z,68.90
2018-03-19T21:13:13.639Z,68.70
2018-03-19T21:15:42.063Z,67.00
2018-03-19T21:18:10.475Z,68.20
2018-03-19T21:20:38.930Z,68.30
2018-03-19T21:23:07.346Z,68.20
2018-03-19T21:25:35.769Z,68.00
2018-03-19T21:28:03.988Z,68.20
2018-03-19T21:30:32.419Z,67.20
2018-03-19T21:33:00.828Z,68.20
2018-03-19T21:35:29.253Z,68.60
2018-03-19T21:37:57.882Z,68.50
2018-03-19T21:40:27.066Z,68.70
2018-03-19T21:42:56.466Z,68.70
2018-03-19T21:45:24.866Z,67.40
2018-03-19T21:47:53.273Z,68.20
2018-03-19T21:50:21.686Z,68.10
2018-03-19T21:52:50.096Z,68.10
2018-03-19T21:55:19.279Z,67.30
2018-03-19T21:57:48.081Z,67.30
2018-03-19T22:00:16.486Z,66.80
2018-03-19T22:02:44.924Z,66.10
2018-03-19T22:05:13.340Z,66.90
2018-03-19T22:07:42.507Z,67.90
2018-03-19T22:10:10.911Z,68.00
2018-03-19T22:12:39.303Z,67.20
2018-03-19T22:15:08.501Z,67.10
2018-03-19T22:17:36.949Z,67.10
2018-03-19T22:20:04.690Z,67.60
2018-03-19T22:22:33.119Z,67.90
2018-03-19T22:25:02.317Z,66.10
2018-03-19T22:27:31.485Z,66.80
2018-03-19T22:29:59.899Z,66.20
2018-03-19T22:32:29.068Z,67.30
2018-03-19T22:34:57.489Z,67.20
2018-03-19T22:37:25.895Z,66.70
2018-03-19T22:39:54.316Z,67.40
2018-03-19T22:42:22.765Z,67.70
2018-03-19T22:44:51.168Z,67.90
2018-03-19T22:47:19.589Z,67.30
2018-03-19T22:49:48.186Z,67.20
2018-03-19T22:52:16.593Z,67.10
2018-03-19T22:54:45.003Z,66.70
2018-03-19T22:57:14.671Z,67.30
2018-03-19T22:59:43.104Z,67.30
2018-03-19T23:02:11.588Z,67.30
2018-03-19T23:07:44.293Z,67.20
2018-03-19T23:10:12.700Z,66.90
2018-03-19T23:12:41.123Z,67.80
2018-03-19T23:15:10.300Z,67.80
2018-03-19T23:17:38.727Z,67.80
2018-03-19T23:20:07.137Z,68.00
2018-03-19T23:22:35.539Z,66.60
2018-03-19T23:25:03.612Z,67.80
2018-03-19T23:27:32.041Z,68.00
2018-03-19T23:30:00.455Z,68.00
2018-03-19T23:32:28.668Z,67.80
2018-03-19T23:34:57.094Z,67.10
2018-03-19T23:37:25.501Z,67.60
2018-03-19T23:39:53.915Z,67.80
2018-03-19T23:42:22.372Z,67.80
2018-03-19T23:44:51.543Z,68.30
2018-03-19T23:47:19.981Z,68.30
2018-03-19T23:49:48.084Z,68.20
2018-03-19T23:52:17.514Z,67.10
2018-03-19T23:54:47.574Z,68.20
2018-03-19T23:57:16.724Z,68.10
2018-03-19T23:59:46.471Z,67.90
